Euro IV — IQNH — position and weather

sailwx.info

Track history (hours):
 
Tides and Currents Weather Stations Pressure Air Temp Water Temp Dewpoint Dewpoint Depression Visibility Wind Speed Wind Dir Waves Ship Positions

Euro IV

Last reported at 2017-Mar-25 08:27 UTC. Time now 2017-Mar-26 03:41 UTC.
Position N 44°06' E 009°50'.

Length 25 m; draft 1.3 m.

Type: Passenger vessel. MMSI: 247131500.

Date/timePositionNaut miles runAvg speedWind from/ knotsBaromVisibWave heightAir tempDewpointWater temp
2017-Mar-25 08:27N 44°06' E 009°50'0 0.3
2017-Mar-25 07:33N 44°06' E 009°50'0 0.0
2017-Mar-23 09:12N 44°06' E 009°50'0 0.0
2017-Mar-23 08:33N 44°06' E 009°50'0 0.0
2017-Mar-22 16:16N 44°06' E 009°50'3 4.4
2017-Mar-22 15:33N 44°03' E 009°50'1 1.1
2017-Mar-22 14:33N 44°03' E 009°49'9 8.5
2017-Mar-22 13:33N 44°09' E 009°39'0 0.0
2017-Mar-22 12:33N 44°09' E 009°39'1 0.8
2017-Mar-22 11:16N 44°08' E 009°40'0 0.4
2017-Mar-22 10:33N 44°08' E 009°40'8 8.4
2017-Mar-22 09:33N 44°03' E 009°50'3 0.1
2017-Mar-20 09:33N 44°06' E 009°50'  
2017-Mar-16 13:33N 44°06' E 009°50'0 0.0
2017-Mar-16 12:33N 44°06' E 009°50'0 0.0
2017-Mar-16 11:31N 44°06' E 009°50'0 0.0
2017-Mar-16 10:33N 44°06' E 009°50'0 0.0
2017-Mar-16 09:19N 44°06' E 009°50'0 0.0
2017-Mar-15 14:16N 44°06' E 009°50'0 0.0
2017-Mar-15 13:30N 44°06' E 009°50'0 0.0
2017-Mar-15 12:33N 44°06' E 009°50'0 0.0
2017-Mar-15 11:33N 44°06' E 009°50'0 0.0
2017-Mar-15 10:33N 44°06' E 009°50'0 0.0
2017-Mar-15 09:33N 44°06' E 009°50'0 0.0
2017-Mar-15 08:33N 44°06' E 009°50'  
Track history (hours):
 
Tides and Currents Weather Stations Pressure Air Temp Water Temp Dewpoint Dewpoint Depression Visibility Wind Speed Wind Dir Waves Ship Positions

Euro IV

Last reported at 2017-Mar-25 08:27 UTC. Time now 2017-Mar-26 03:41 UTC.
Position N 44°06' E 009°50'.

Length 25 m; draft 1.3 m.

Type: Passenger vessel. MMSI: 247131500.

Date/timePositionNaut miles runAvg speedWind from/ knotsBaromVisibWave heightAir tempDewpointWater temp
2017-Mar-25 08:27N 44°06' E 009°50'0 0.3
2017-Mar-25 07:33N 44°06' E 009°50'0 0.0
2017-Mar-23 09:12N 44°06' E 009°50'0 0.0
2017-Mar-23 08:33N 44°06' E 009°50'0 0.0
2017-Mar-22 16:16N 44°06' E 009°50'3 4.4
2017-Mar-22 15:33N 44°03' E 009°50'1 1.1
2017-Mar-22 14:33N 44°03' E 009°49'9 8.5
2017-Mar-22 13:33N 44°09' E 009°39'0 0.0
2017-Mar-22 12:33N 44°09' E 009°39'1 0.8
2017-Mar-22 11:16N 44°08' E 009°40'0 0.4
2017-Mar-22 10:33N 44°08' E 009°40'8 8.4
2017-Mar-22 09:33N 44°03' E 009°50'3 0.1
2017-Mar-20 09:33N 44°06' E 009°50'  
2017-Mar-16 13:33N 44°06' E 009°50'0 0.0
2017-Mar-16 12:33N 44°06' E 009°50'0 0.0
2017-Mar-16 11:31N 44°06' E 009°50'0 0.0
2017-Mar-16 10:33N 44°06' E 009°50'0 0.0
2017-Mar-16 09:19N 44°06' E 009°50'0 0.0
2017-Mar-15 14:16N 44°06' E 009°50'0 0.0
2017-Mar-15 13:30N 44°06' E 009°50'0 0.0
2017-Mar-15 12:33N 44°06' E 009°50'0 0.0
2017-Mar-15 11:33N 44°06' E 009°50'0 0.0
2017-Mar-15 10:33N 44°06' E 009°50'0 0.0
2017-Mar-15 09:33N 44°06' E 009°50'0 0.0
2017-Mar-15 08:33N 44°06' E 009°50'  

Dump ship's entire track history